Portland, Arkansas
Current Conditions -  °F | °C
As of 8:53 PM on Saturday 25 Oct 2014 (Local Time) from KLLQ Reporting Station
Clear Clear  
Wind Chill: 69°   Ceiling: Unl
Heat Index: 69°   Visibility: 10mi
Dew Point: 64°   Wind: 5mph
Humidity: 84%   Direction: 250°WSW
Pressure: 30.05"   Gusts: NA
Location:  33.24°N, 91.51°W
Report Text: KLLQ 260153Z AUTO 25004KT 10SM CLR 21/18 A3005 RMK AO2 RAE08 SLP174 P0000 T02060178
Loading
Personal Weather Stations






























Interactive Weather Map New forecast layout! Learn more

10-Day Weather Forecast

Advertisements
Track Severe Weather on mobile